Latest Coastal Weather Observations for Cape Nelson

IDS60701

Issued at 12:51 am CDT Monday 20 November 2017 (issued every 10 minutes, with the page automatically refreshed every 10 minutes)

About coastal observations | Map of coastal stations | Coastal observations for SA | Marine services | Other Formats
Station Details ID: 090184 Name: CAPE NELSON LIGHTHOUSE Lat: -38.43 Lon: 141.54 Height: 45.4 m
Data from the previous 72 hours. | See also: Recent months at Cape Nelson
Date/Time
CDT
Temp
°C
Wind Pressure Rain since
9am
mm
Weather Cloud Vis
km
Sea
Height
m
Swell
Dir  Spd
kts
Gust
kts
hPa Trend Height
m
Period
s
Dir
20/12:30am 18.3 ENE 13 16 1019.3 - 0.0 - - - - - - -
20/12:00am 18.6 ENE 13 16 1019.5 - 0.0 - - - - - - -
 
Date/Time
CDT
Temp
°C
Wind Pressure Rain since
9am
mm
Weather Cloud Vis
km
Sea
Height
m
Swell
Dir  Spd
kts
Gust
kts
hPa Trend Height
m
Period
s
Dir
19/11:30pm 18.5 NE 13 17 1019.4 - 0.0 - - - - - - -
19/11:00pm 17.9 NE 11 14 1019.6 - 0.0 - - - - - - -
19/10:30pm 17.9 ENE 12 17 1019.6 - 0.0 - - - - - - -
19/10:00pm 17.6 ENE 12 15 1019.8 - 0.0 - - - - - - -
19/09:30pm 17.6 ENE 11 13 1019.6 - 0.0 - - - - - - -
19/09:00pm 17.8 ENE 9 13 1019.4 - 0.0 - - - - - - -
19/08:30pm 17.7 NE 7 10 1019.2 - 0.0 - - - - - - -
19/08:00pm 17.9 NNE 6 9 1018.9 - 0.0 - - - - - - -
19/07:30pm 18.6 ENE 8 14 1018.6 - 0.0 - - - - - - -
19/07:00pm 19.1 E 10 15 1018.3 - 0.0 - - - - - - -
19/06:30pm 19.4 E 13 17 1018.3 - 0.0 - - - - - - -
19/06:00pm 19.9 E 15 21 1018.1 - 0.0 - - - - - - -
19/05:30pm 20.0 E 20 25 1017.9 - 0.0 - - - - - - -
19/05:00pm 20.2 E 17 22 1017.9 - 0.0 - - - - - - -
19/04:30pm 20.3 E 15 19 1018.2 - 0.0 - - - - - - -
19/04:00pm 21.0 E 14 18 1018.3 - 0.0 - - - - - - -
19/03:30pm 21.6 E 13 16 1018.5 - 0.0 - - - - - - -
19/03:00pm 21.7 E 13 18 1018.9 - 0.0 - - - - - - -
19/02:30pm 21.6 E 13 17 1019.1 - 0.0 - - - - - - -
19/02:00pm 21.9 E 11 15 1019.6 - 0.0 - - - - - - -
19/01:30pm 23.0 E 9 15 1019.8 - 0.0 - - - - - - -
19/01:00pm 22.6 E 11 14 1019.7 - 0.0 - - - - - - -
19/12:30pm 22.7 E 9 11 1019.7 - 0.0 - - - - - - -
19/12:00pm 22.3 E 9 13 1019.7 - 0.0 - - - - - - -
19/11:30am 21.7 E 7 11 1019.7 - 0.0 - - - - - - -
19/11:00am 22.3 ENE 7 9 1020.0 - 0.0 - - - - - - -
19/10:30am 21.7 ENE 9 11 1019.8 - 0.0 - - - - - - -
19/10:00am 20.6 ENE 11 13 1019.5 - 0.0 - - - - - - -
19/09:30am 20.0 ENE 10 13 1019.7 - 0.0 - - - - - - -
19/09:00am 19.7 E 7 10 1019.9 - 0.0 - - - - - - -
19/08:30am 19.6 ENE 6 8 1019.9 - 0.2 - - - - - - -
19/08:00am 19.4 NE 8 11 1019.5 - 0.2 - - - - - - -
19/07:30am 18.2 NNE 8 11 1019.3 - 0.2 - - - - - - -
19/07:00am 17.4 NE 7 10 1018.8 - 0.2 - - - - - - -
19/06:30am 16.5 ENE 11 14 1018.2 - 0.2 - - - - - - -
19/06:00am 16.1 ENE 8 12 1017.9 - 0.2 - - - - - - -
19/05:30am 15.9 NE 7 10 1017.8 - 0.2 - - - - - - -
19/05:00am 16.1 ENE 9 12 1017.5 - 0.2 - - - - - - -
19/04:30am 16.0 ENE 9 12 1017.5 - 0.2 - - - - - - -
19/04:00am 16.2 ENE 12 14 1017.2 - 0.2 - - - - - - -
19/03:30am 16.3 ENE 11 13 1017.3 - 0.2 - - - - - - -
19/03:00am 16.3 ENE 12 14 1017.3 - 0.2 - - - - - - -
19/02:30am 16.2 NE 9 11 1017.3 - 0.2 - - - - - - -
19/02:00am 16.3 NE 11 15 1017.1 - 0.2 - - - - - - -
19/01:30am 16.2 NE 11 15 1017.3 - 0.2 - - - - - - -
19/01:00am 16.1 ENE 11 13 1017.4 - 0.2 - - - - - - -
19/12:30am 15.9 ENE 8 11 1017.7 - 0.2 - - - - - - -
19/12:00am 15.6 E 8 10 1017.7 - 0.2 - - - - - - -
 
Date/Time
CDT
Temp
°C
Wind Pressure Rain since
9am
mm
Weather Cloud Vis
km
Sea
Height
m
Swell
Dir  Spd
kts
Gust
kts
hPa Trend Height
m
Period
s
Dir
18/11:30pm 15.2 ESE 5 7 1017.8 - 0.2 - - - - - - -
18/11:00pm 15.0 S 5 6 1018.3 - 0.2 - - - - - - -
18/10:30pm 14.8 SSW 4 6 1018.2 - 0.2 - - - - - - -
18/10:00pm 14.2 ESE 4 5 1018.3 - 0.2 - - - - - - -
18/09:30pm 14.6 ENE 7 9 1018.3 - 0.2 - - - - - - -
18/09:00pm 14.5 E 8 10 1017.8 - 0.2 - - - - - - -
18/08:30pm 14.6 E 9 12 1017.6 - 0.2 - - - - - - -
18/08:00pm 14.8 E 8 10 1017.7 - 0.2 - - - - - - -
18/07:30pm 14.8 E 10 15 1017.6 - 0.2 - - - - - - -
18/07:00pm 15.0 ESE 8 11 1017.4 - 0.2 - - - - - - -
18/06:30pm 15.4 ESE 6 9 1017.4 - 0.2 - - - - - - -
18/06:00pm 15.5 E 10 13 1016.9 - 0.2 - - - - - - -
18/05:30pm 15.8 ESE 7 12 1016.9 - 0.2 - - - - - - -
18/05:00pm 16.1 SE 7 11 1016.9 - 0.2 - - - - - - -
18/04:30pm 16.0 S 8 10 1016.9 - 0.2 - - - - - - -
18/04:00pm 15.8 SSW 8 11 1017.1 - 0.2 - - - - - - -
18/03:30pm 15.8 S 7 13 1017.3 - 0.2 - - - - - - -
18/03:00pm 16.3 S 7 12 1017.4 - 0.2 - - - - - - -
18/02:30pm 17.0 SSW 7 9 1017.4 - 0.2 - - - - - - -
18/02:00pm 18.3 S 6 7 1017.4 - 0.2 - - - - - - -
18/01:30pm 18.2 S 5 7 1017.2 - 0.2 - - - - - - -
18/01:00pm 18.6 SSE 6 7 1016.8 - 0.2 - - - - - - -
18/12:30pm 18.2 S 6 8 1016.9 - 0.2 - - - - - - -
18/12:00pm 18.4 S 6 8 1017.0 - 0.2 - - - - - - -
18/11:30am 17.3 SSW 5 7 1017.0 - 0.2 - - - - - - -
18/11:00am 16.4 WSW 5 8 1016.9 - 0.2 - - - - - - -
18/10:30am 16.5 WSW 5 6 1016.7 - 0.2 - - - - - - -
18/10:00am 16.4 SSW 4 5 1016.8 - 0.2 - - - - - - -
18/09:30am 15.4 WSW 3 4 1016.7 - 0.0 - - - - - - -
18/09:00am 15.2 W 4 6 1016.7 - 0.0 - - - - - - -
18/08:30am 15.1 WNW 5 7 1016.5 - 0.0 - - - - - - -
18/08:00am 15.0 W 5 6 1016.0 - 0.0 - - - - - - -
18/07:30am 15.2 CALM 0 0 1015.6 - 0.0 - - - - - - -
18/07:00am 15.1 N 5 7 1015.4 - 0.0 - - - - - - -
18/06:30am 14.7 ENE 7 8 1015.0 - 0.0 - - - - - - -
18/06:00am 14.7 ENE 8 10 1014.8 - 0.0 - - - - - - -
18/05:30am 14.6 E 7 9 1014.3 - 0.0 - - - - - - -
18/05:00am 14.6 E 5 7 1014.1 - 0.0 - - - - - - -
18/04:30am 14.8 CALM 0 0 1014.2 - 0.0 - - - - - - -
18/04:00am 14.8 CALM 0 0 1014.1 - 0.0 - - - - - - -
18/03:30am 14.9 SSW 2 4 1014.1 - 0.0 - - - - - - -
18/03:00am 15.1 E 3 5 1013.9 - 0.0 - - - - - - -
18/02:30am 15.1 ENE 5 7 1013.8 - 0.0 - - - - - - -
18/02:00am 15.2 E 6 8 1014.0 - 0.0 - - - - - - -
18/01:30am 14.8 E 5 7 1014.3 - 0.0 - - - - - - -
18/01:00am 14.6 ESE 7 9 1014.7 - 0.0 - - - - - - -
18/12:30am 14.3 ESE 4 7 1014.7 - 0.0 - - - - - - -
18/12:00am 14.5 SSE 3 5 1014.9 - 0.0 - - - - - - -
 
Date/Time
CDT
Temp
°C
Wind Pressure Rain since
9am
mm
Weather Cloud Vis
km
Sea
Height
m
Swell
Dir  Spd
kts
Gust
kts
hPa Trend Height
m
Period
s
Dir
17/11:30pm 14.8 S 3 5 1014.9 - 0.0 - - - - - - -
17/11:00pm 14.9 S 6 8 1014.8 - 0.0 - - - - - - -
17/10:30pm 14.9 WSW 1 6 1014.6 - 0.0 - - - - - - -
17/10:00pm 15.2 NW 3 5 1014.0 - 0.0 - - - - - - -
17/09:30pm 15.2 E 6 9 1013.9 - 0.0 - - - - - - -
17/09:00pm 15.1 E 9 11 1014.0 - 0.0 - - - - - - -
17/08:30pm 15.1 E 9 11 1013.8 - 0.0 - - - - - - -
17/08:00pm 15.1 E 8 12 1013.9 - 0.0 - - - - - - -
17/07:30pm 15.0 SE 7 11 1013.5 - 0.0 - - - - - - -
17/07:00pm 15.1 ESE 9 12 1013.3 - 0.0 - - - - - - -
17/06:30pm 15.4 ESE 7 10 1012.9 - 0.0 - - - - - - -
17/06:00pm 15.9 ESE 6 8 1012.4 - 0.0 - - - - - - -
17/05:30pm 16.0 ESE 7 10 1012.8 - 0.0 - - - - - - -
17/05:00pm 16.4 ESE 8 11 1012.9 - 0.0 - - - - - - -
17/04:30pm 16.6 ESE 8 10 1012.7 - 0.0 - - - - - - -
17/04:00pm 16.9 E 10 13 1012.7 - 0.0 - - - - - - -
17/03:30pm 17.2 E 10 13 1012.8 - 0.0 - - - - - - -
17/03:00pm 17.9 E 9 11 1012.7 - 0.0 - - - - - - -
17/02:30pm 17.5 ESE 9 11 1012.6 - 0.0 - - - - - - -
17/02:00pm 16.8 ESE 9 13 1012.9 - 0.0 - - - - - - -
17/01:30pm 16.7 E 10 13 1013.1 - 0.0 - - - - - - -
17/01:00pm 16.9 ESE 9 13 1013.2 - 0.0 - - - - - - -
17/12:30pm 16.9 ESE 8 12 1013.3 - 0.0 - - - - - - -
17/12:00pm 17.2 ESE 9 12 1013.4 - 0.0 - - - - - - -
17/11:30am 17.2 ESE 8 11 1013.5 - 0.0 - - - - - - -
17/11:00am 16.8 E 10 12 1013.6 - 0.0 - - - - - - -
17/10:30am 16.3 E 10 12 1013.7 - 0.0 - - - - - - -
17/10:00am 16.4 E 11 13 1013.7 - 0.0 - - - - - - -
17/09:30am 16.3 E 9 11 1013.5 - 0.0 - - - - - - -
17/09:00am 16.0 E 11 13 1013.7 - 0.0 - - - - - - -
17/08:30am 15.6 E 11 14 1013.5 - 15.0 - - - - - - -
17/08:00am 15.8 E 10 15 1013.2 - 15.0 - - - - - - -
17/07:30am 15.9 E 9 13 1012.9 - 15.0 - - - - - - -
17/07:00am 15.7 E 8 11 1012.7 - 15.0 - - - - - - -
17/06:30am 15.6 E 11 15 1012.5 - 15.0 - - - - - - -
17/06:00am 15.6 E 12 16 1012.1 - 15.0 - - - - - - -
17/05:30am 15.5 E 14 17 1011.6 - 15.0 - - - - - - -
17/05:00am 15.5 E 13 15 1011.4 - 15.0 - - - - - - -
17/04:30am 15.5 E 14 17 1011.4 - 15.0 - - - - - - -
17/04:00am 15.4 ESE 14 19 1011.4 - 15.0 - - - - - - -
17/03:30am 15.4 E 15 19 1011.4 - 15.0 - - - - - - -
17/03:00am 15.4 E 18 21 1011.3 - 15.0 - - - - - - -
17/02:30am 15.5 E 17 22 1011.4 - 15.0 - - - - - - -
17/02:00am 15.5 E 18 24 1011.4 - 15.0 - - - - - - -
17/01:30am 15.5 E 16 23 1011.5 - 15.0 - - - - - - -
17/01:00am 15.5 E 16 23 1011.5 - 15.0 - - - - - - -
17/12:30am 15.4 ESE 14 20 1011.8 - 15.0 - - - - - - -

Other Formats:

Comma delimited format used in spreadsheet applications
http://www.bom.gov.au/fwo/IDS60701/IDS60701.94826.axf

JavaScript Object Notation format (JSON) in row-major order
http://www.bom.gov.au/fwo/IDS60701/IDS60701.94826.json